»·PEaware :: GPD250 U74-4V0

GPD250 :: U74-4V0

FLIGHT INFORMATION

Flight Status: Arrived
Operator: Unknown
More flights by this operator :: More flights under this callsign
Pilot: Andrew J. (13363)
Aircraft: PILATUS PC-12 EAGLE
(PC12)
More flights by this aircraft type
Origin: U74 Crescent Valley
United States
Destination: 4V0 Rangely
United States
More flights between these airports :: More routes between these airports
Route: + / MTU
File this flight plan on PilotEdge
Remarks:
Altitude:
(Current/Filed)
25,000ft
Speed:
(Current/Filed)
475kts
Departed: 03-Feb-18 10:48 PM
Arrived: 04-Feb-18 12:10 AM
Distance/Time
Traveled:
358nm/1:22
Distance/Time
To Go:
Arrived

Flight Plot

Page will automatically refresh every two minutes.

Flight plan parsing failed; only flown route is shown


Map Options




Map Legend


Flown Route
Filed Route
Departure Airport
Arrival Airport
Navaid (VOR, NDB)
Fix

Horizontal Profiles

Position Reports

Time Latitude Longitude Heading Altitude Ground
Speed
03-Feb-18 22:51 40.208635 -116.629090 246 4789ft 0kts
03-Feb-18 22:52 40.208635 -116.629090 246 4789ft 0kts
03-Feb-18 22:53 40.208339 -116.630030 244 4789ft 38kts
03-Feb-18 22:54 40.210494 -116.662853 332 5802ft 129kts
03-Feb-18 22:55 40.248108 -116.656121 1 7566ft 160kts
03-Feb-18 22:56 40.293090 -116.662256 351 9607ft 164kts
03-Feb-18 22:57 40.336174 -116.649758 32 11733ft 166kts
03-Feb-18 22:58 40.368359 -116.607349 65 13785ft 175kts
03-Feb-18 23:00 40.385977 -116.556787 48 16241ft 139kts
03-Feb-18 23:01 40.408454 -116.515303 37 18142ft 141kts
03-Feb-18 23:02 40.437067 -116.480215 23 19977ft 143kts
03-Feb-18 23:03 40.470146 -116.453439 9 21807ft 139kts
03-Feb-18 23:04 40.505521 -116.436216 357 23530ft 134kts
03-Feb-18 23:05 40.541653 -116.428878 349 24957ft 138kts
03-Feb-18 23:06 40.588813 -116.436504 338 24980ft 198kts
03-Feb-18 23:07 40.645468 -116.457539 353 24968ft 233kts
03-Feb-18 23:08 40.667211 -116.373164 121 24979ft 334kts
03-Feb-18 23:09 40.603941 -116.282859 135 24966ft 338kts
03-Feb-18 23:10 40.537707 -116.195004 135 24967ft 339kts
03-Feb-18 23:11 40.499810 -116.090678 84 24973ft 323kts
03-Feb-18 23:12 40.496134 -115.972616 84 24970ft 325kts
03-Feb-18 23:12 40.492923 -115.873779 84 24971ft 325kts
03-Feb-18 23:14 40.488458 -115.735155 84 24972ft 326kts
03-Feb-18 23:15 40.484168 -115.616238 84 24973ft 326kts
03-Feb-18 23:15 40.480477 -115.517273 84 24973ft 326kts
03-Feb-18 23:16 40.475934 -115.398225 84 24975ft 327kts
03-Feb-18 23:18 40.470509 -115.260422 86 24967ft 326kts
03-Feb-18 23:18 40.466511 -115.161314 86 24968ft 326kts
03-Feb-18 23:19 40.461593 -115.042201 86 24969ft 327kts
03-Feb-18 23:21 40.455704 -114.903076 86 24864ft 329kts
03-Feb-18 23:21 40.451349 -114.803604 85 24863ft 328kts
03-Feb-18 23:22 40.446047 -114.684272 85 24864ft 327kts
03-Feb-18 23:23 40.440626 -114.564952 83 24866ft 327kts
03-Feb-18 23:24 40.435105 -114.446132 85 24866ft 327kts
03-Feb-18 23:25 40.429462 -114.327265 86 24861ft 327kts
03-Feb-18 23:26 40.423918 -114.213223 85 24860ft 326kts
03-Feb-18 23:27 40.418010 -114.095943 83 25227ft 315kts
03-Feb-18 23:28 40.412271 -113.980053 84 25238ft 321kts
03-Feb-18 23:29 40.406221 -113.862703 84 25239ft 324kts
03-Feb-18 23:30 40.400012 -113.745038 84 25240ft 325kts
03-Feb-18 23:31 40.393660 -113.626725 84 25241ft 325kts
03-Feb-18 23:32 40.387186 -113.508328 84 25242ft 325kts
03-Feb-18 23:33 40.380621 -113.390476 84 25245ft 326kts
03-Feb-18 23:34 40.375687 -113.303494 84 25316ft 324kts
03-Feb-18 23:35 40.368938 -113.185600 84 25311ft 325kts
03-Feb-18 23:36 40.362009 -113.067146 84 25238ft 326kts
03-Feb-18 23:37 40.354906 -112.949085 84 25238ft 324kts
03-Feb-18 23:38 40.347815 -112.831167 84 25240ft 325kts
03-Feb-18 23:39 40.340521 -112.712696 84 25241ft 326kts
03-Feb-18 23:40 40.333319 -112.597788 84 25242ft 326kts
03-Feb-18 23:41 40.325926 -112.481677 84 25243ft 327kts
03-Feb-18 23:42 40.318249 -112.363016 84 25244ft 327kts
03-Feb-18 23:43 40.310453 -112.244468 85 25237ft 327kts
03-Feb-18 23:44 40.302560 -112.126276 85 25238ft 327kts
03-Feb-18 23:45 40.294491 -112.007295 85 25239ft 328kts
03-Feb-18 23:46 40.286337 -111.888777 85 25240ft 328kts
03-Feb-18 23:47 40.278025 -111.769804 85 25241ft 328kts
03-Feb-18 23:48 40.269594 -111.650949 85 25242ft 329kts
03-Feb-18 23:49 40.261012 -111.531752 85 25243ft 329kts
03-Feb-18 23:50 40.252323 -111.412784 85 25245ft 329kts
03-Feb-18 23:51 40.243641 -111.295609 86 25237ft 329kts
03-Feb-18 23:52 40.234689 -111.176510 86 25238ft 329kts
03-Feb-18 23:53 40.225654 -111.057838 86 25239ft 329kts
03-Feb-18 23:54 40.216454 -110.938648 86 25241ft 329kts
03-Feb-18 23:55 40.207165 -110.819947 86 25242ft 329kts
03-Feb-18 23:56 40.197744 -110.701137 86 25221ft 330kts
03-Feb-18 23:57 40.188113 -110.581348 86 25137ft 333kts
03-Feb-18 23:58 40.178313 -110.461342 86 25137ft 332kts
03-Feb-18 23:59 40.168533 -110.342835 86 25135ft 332kts
04-Feb-18 00:00 40.158581 -110.223711 86 25131ft 331kts
04-Feb-18 00:01 40.148792 -110.104631 84 25107ft 328kts
04-Feb-18 00:02 40.145038 -109.986044 81 25106ft 326kts
04-Feb-18 00:03 40.141175 -109.868014 82 25048ft 328kts
04-Feb-18 00:04 40.136645 -109.743925 83 23726ft 351kts
04-Feb-18 00:05 40.131538 -109.616089 84 22176ft 353kts
04-Feb-18 00:06 40.126480 -109.489165 87 20623ft 348kts
04-Feb-18 00:07 40.121062 -109.365465 87 19073ft 336kts
04-Feb-18 00:08 40.116000 -109.248109 87 17508ft 323kts
04-Feb-18 00:09 40.111115 -109.132940 87 15923ft 315kts
04-Feb-18 00:10 40.106235 -109.022210 87 14984ft 292kts
04-Feb-18 00:11 40.101834 -108.922399 86 14984ft 272kts
04-Feb-18 00:12 40.097729 -108.826075 85 14714ft 257kts
04-Feb-18 00:13 40.098437 -108.740365 81 11221ft 204kts
04-Feb-18 00:14 40.105690 -108.693059 348 8830ft 125kts
04-Feb-18 00:15 40.106941 -108.727265 218 6535ft 119kts
04-Feb-18 00:16 40.095378 -108.754796 259 5262ft 21kts
04-Feb-18 00:17 40.093444 -108.756149 71 5275ft 7kts
04-Feb-18 00:18 40.093453 -108.756103 79 5275ft 0kts
04-Feb-18 00:19 40.093453 -108.756103 79 5275ft 0kts

Navigation Log

Ident Type
Flight plan parsing failed, navigation log unavailable